To NAV CANADA Home Page Login to a new session Search on AWWS site Disclaimer Vers la page française équivalente Tips FAQ What's new on the site To the Forecasts and Observations / NOTAM section To "File a Flight Plan" website Publications and other links Update of the User's profile FIC Telephone Numbers My Weather Data Folder Route Weather Data Regional Weather Data Local Weather Data To the Forecasts and Observations / NOTAM section
Request Generated 10/20/2021 at 18:46:33 UTC . Weather information available at that time is displayed.


Go to a specific product

Save this request - Inactive

NOTAM

NOTAM


PIREP
To the Product Selector

FIR_TORONTO (YZ)

UACN10 CYXU 201823
YZ
UA /OV KBUF /TM 1810 /FLDURD /TP AEST /IC LGT RIME 095-140 /RM VCNTY
KBUF KIAG

UACN10 CYXU 201747
YZ
UA /OV CYKF 270015 /TM 1740 /FLDURD /TP E75L /IC LGT RIME 150-180


METAR/TAF
To the Product Selector

WIARTON/ON    

METAR CYVV 201800Z 25011G17KT 15SM FEW012 FEW040 FEW070 17/12 A2997 RMK SF1SC1AC1 SF TR SLP154 DENSITY ALT 1100FT=
METAR CYVV 201700Z 25008KT 15SM FEW016 FEW040 SCT080 SCT250 17/12 A2999 RMK CU1SC1AC1CC1 CC TR SLP158 DENSITY ALT 1100FT=
METAR CYVV 201600Z 23009G15KT 15SM FEW008 SCT040 BKN070 16/13 A2999 RMK SF1SC3AC2 SLP160 DENSITY ALT 900FT=

TAF CYVV 201338Z 2014/2023 24008KT P6SM BKN090 TEMPO 2014/2018 P6SM
-SHRA
FM201800 24010KT P6SM SCT012 BKN090
FM202000 24008KT P6SM FEW012 SCT060
RMK NXT FCST BY 202000Z=

KITCHENER/WATERLOO/ON    (show WxCam)

SPECI CYKF 201822Z AUTO 24009KT 9SM BKN096 BKN140 BKN170 17/10 A3002 RMK SLP166 DENSITY ALT 1400FT=
SPECI CYKF 201805Z AUTO 23008KT 9SM -RA FEW071 SCT100 BKN140 BKN170 16/11 A3002 RMK SLP168 DENSITY ALT 1300FT=
METAR CYKF 201800Z AUTO 24007KT 9SM SCT100 BKN140 BKN170 16/11 A3002 RMK SLP170 DENSITY ALT 1300FT=
SPECI CYKF 201740Z AUTO 24008KT 9SM BKN100 BKN120 OVC140 16/10 A3003 RMK SLP169 DENSITY ALT 1300FT=
METAR CYKF 201700Z AUTO 22006KT 9SM -RA BKN100 OVC120 15/10 A3003 RMK PRESFR SLP173 DENSITY ALT 1200FT=
SPECI CYKF 201659Z AUTO 22006KT 9SM -RA BKN100 OVC120 15/10 A3003 RMK PRESFR SLP171 DENSITY ALT 1200FT=
METAR CYKF 201600Z AUTO 26010G16KT 9SM FEW100 SCT120 BKN160 BKN220 16/09 A3005 RMK SLP180 DENSITY ALT 1300FT=

TAF CYKF 201339Z 2014/2102 27008KT P6SM FEW110 SCT240
FM201600 26012KT P6SM BKN100 BKN240 TEMPO 2016/2020 P6SM -SHRA
BECMG 2022/2024 25005KT
RMK FCST BASED ON AUTO OBS. NXT FCST BY 202000Z=

LONDON/ON    

METAR CYXU 201800Z 22007KT 15SM VCSH BKN130 BKN220 OVC280 18/10 A3003 RMK ACC6CC1CI1 SHRA SE-SW SLP172 DENSITY ALT 1400FT=
METAR CYXU 201700Z 22009KT 15SM VCSH BKN100 OVC280 17/10 A3004 RMK ACC7CI1 SHRA E MOVG E SLP175 DENSITY ALT 1200FT=
SPECI CYXU 201652Z 20009KT 180V250 15SM -SHRA BKN099 BKN280 17/09 A3004 RMK ACC6CI1 SLP177 DENSITY ALT 1300FT=
METAR CYXU 201600Z 27009KT 230V300 15SM BKN130 BKN280 18/10 A3008 RMK ACC6CI1 SHRA DIST N SLP190 DENSITY ALT 1300FT=

TAF CYXU 201740Z 2018/2118 26008KT P6SM FEW060 BKN130 TEMPO 2018/2022
P6SM -SHRA
BECMG 2018/2020 21008KT
FM202200 21008KT P6SM SCT120
FM210300 20005KT P6SM FEW060 BKN110 TEMPO 2103/2116 P6SM -SHRA
BECMG 2107/2109 24010KT
FM211600 22012KT P6SM -SHRA BKN020 OVC100
RMK NXT FCST BY 210000Z=


RADAR PCPN RATE
To the Product Selector
Ontario      Quebec     

GRAPHICAL FA CLOUDS & WEATHER FORECASTS
To the Product Selector
Graphical FA gfacn33      

GRAPHICAL FA ICING, TURBULENCE & FREEZING LEVEL FORECASTS
To the Product Selector
Graphical FA gfacn33      

FDTEXT Low Level FD. Temperatures are not forecast for the 3,000-foot level.
To the Product Selector
STN YVV - WIARTON. ONT for use 3000 6000 9000 12000 18000
FDCN01 CWAO FCST BASED ON 201200 DATA VALID 201800 17-21 2617 2830+07 2836+03 2840-02 2836-13
FDCN02 CWAO FCST BASED ON 201200 DATA VALID 210000 21-06 2617 2822+07 2930+04 2839-02 2843-14
FDCN03 CWAO FCST BASED ON 201200 DATA VALID 211200 06-17 2423 2434+06 2534+02 2634-03 2540-16



Your time UTC time
Weather data provided by Environment Canada and NAV CANADA